Time;durP1;ratioP1;P1;durP2;ratioP2;P2;SDS_P1;SDS_P2;PMS_P1;PMS_P2;Temp;Humidity;BMP_temperature;BMP_pressure;BME280_temperature;BME280_humidity;BME280_pressure;Samples;Min_cycle;Max_cycle;Signal;HPM_P1;HPM_P2
2022/06/20 00:01:45;;;;;;;10.05;2.50;;;14.10;99.90;;;;;;5054158;28;20078;-58
2022/06/20 00:04:18;;;;;;;10.18;2.35;;;14.10;99.90;;;;;;5048815;28;20136;-58
2022/06/20 00:06:43;;;;;;;5.97;2.45;;;14.10;99.90;;;;;;5054950;28;20120;-58
2022/06/20 00:09:10;;;;;;;6.10;2.30;;;14.00;99.90;;;;;;5050634;28;20057;-58
2022/06/20 00:11:41;;;;;;;5.68;2.00;;;14.00;99.90;;;;;;5058911;28;20048;-58
2022/06/20 00:14:12;;;;;;;8.27;2.40;;;14.00;99.90;;;;;;5055741;28;20571;-59
2022/06/20 00:16:38;;;;;;;9.02;2.63;;;14.00;99.90;;;;;;5055825;28;20372;-58
2022/06/20 00:19:04;;;;;;;8.10;2.63;;;14.00;99.90;;;;;;5052341;28;20048;-58
2022/06/20 00:21:30;;;;;;;7.03;2.40;;;14.00;99.90;;;;;;5058514;28;20048;-59
2022/06/20 00:23:55;;;;;;;8.38;2.58;;;14.10;99.90;;;;;;5056251;28;20460;-57
2022/06/20 00:26:21;;;;;;;10.10;2.58;;;14.00;99.90;;;;;;5056371;28;20326;-57
2022/06/20 00:28:48;;;;;;;9.80;2.53;;;14.00;99.90;;;;;;5036664;28;20059;-58
2022/06/20 00:31:15;;;;;;;9.98;2.83;;;13.90;99.90;;;;;;5049460;28;20049;-58
2022/06/20 00:33:41;;;;;;;10.27;2.33;;;14.00;99.90;;;;;;5057027;28;20491;-58
2022/06/20 00:36:07;;;;;;;8.50;2.70;;;14.00;99.90;;;;;;5059111;28;20106;-58
2022/06/20 00:38:35;;;;;;;6.78;2.10;;;13.90;99.90;;;;;;5058583;28;20129;-58
2022/06/20 00:41:15;;;;;;;6.60;2.15;;;13.90;99.90;;;;;;5056742;28;20123;-58
2022/06/20 00:43:45;;;;;;;8.32;2.20;;;13.90;99.90;;;;;;5057214;28;20587;-58
2022/06/20 00:46:23;;;;;;;10.00;2.10;;;13.90;99.90;;;;;;5054789;28;20144;-58
2022/06/20 00:48:55;;;;;;;10.30;2.33;;;13.90;99.90;;;;;;5056560;28;20604;-58
2022/06/20 00:51:30;;;;;;;8.05;2.05;;;13.90;99.90;;;;;;5054053;28;20044;-57
2022/06/20 00:54:22;;;;;;;7.35;2.33;;;13.90;99.90;;;;;;5056975;28;20048;-59
2022/06/20 00:57:17;;;;;;;6.18;2.10;;;13.80;99.90;;;;;;5033096;28;20481;-59
2022/06/20 00:59:48;;;;;;;6.22;1.90;;;13.80;99.90;;;;;;5051288;28;20698;-59
2022/06/20 01:02:23;;;;;;;5.75;1.73;;;13.70;99.90;;;;;;5057598;28;20036;-60
2022/06/20 01:05:00;;;;;;;3.05;1.60;;;13.70;99.90;;;;;;5054109;28;20612;-58
2022/06/20 01:07:37;;;;;;;8.10;2.03;;;13.70;99.90;;;;;;5058462;28;20554;-58
2022/06/20 01:10:04;;;;;;;4.82;1.92;;;13.60;99.90;;;;;;5052772;28;20055;-57
2022/06/20 01:12:37;;;;;;;5.75;1.73;;;13.60;99.90;;;;;;5059624;28;20051;-59
2022/06/20 01:15:25;;;;;;;6.60;2.33;;;13.50;99.90;;;;;;5057370;28;20072;-58
2022/06/20 01:17:52;;;;;;;7.32;1.92;;;13.50;99.90;;;;;;5057419;28;20044;-58
2022/06/20 01:20:23;;;;;;;9.20;2.45;;;13.40;99.90;;;;;;5052851;28;20044;-59
2022/06/20 01:23:07;;;;;;;6.55;1.75;;;13.50;99.90;;;;;;5055207;28;20049;-58
2022/06/20 01:25:33;;;;;;;4.72;2.10;;;13.40;99.90;;;;;;5052578;28;20068;-57
2022/06/20 01:28:00;;;;;;;4.50;1.88;;;13.40;99.90;;;;;;5057945;28;20048;-58
2022/06/20 01:30:32;;;;;;;6.85;1.83;;;13.30;99.90;;;;;;5056730;28;20052;-58
2022/06/20 01:32:58;;;;;;;7.30;2.27;;;13.30;99.90;;;;;;5055908;28;20045;-58
2022/06/20 01:38:13;;;;;;;4.57;1.50;;;13.20;99.90;;;;;;5059676;28;20040;-57
2022/06/20 01:42:18;;;;;;;5.13;1.83;;;13.20;99.90;;;;;;5058337;28;20510;-58
2022/06/20 01:43:29;;;;;;;5.05;1.73;;;13.10;99.90;;;;;;5056012;28;20388;-58
2022/06/20 01:45:59;;;;;;;7.22;1.80;;;13.00;99.90;;;;;;5058022;28;20040;-59
2022/06/20 01:48:28;;;;;;;7.35;1.80;;;13.00;99.90;;;;;;5057351;28;20477;-58
2022/06/20 01:50:54;;;;;;;6.55;2.00;;;13.00;99.90;;;;;;5059052;28;20040;-57
2022/06/20 01:53:26;;;;;;;7.25;2.50;;;13.00;99.90;;;;;;5046581;28;20061;-59
2022/06/20 01:55:54;;;;;;;6.00;2.20;;;12.90;99.90;;;;;;5057597;28;20044;-57
2022/06/20 01:58:30;;;;;;;8.38;2.30;;;12.90;99.90;;;;;;5050300;28;20515;-58
2022/06/20 02:00:57;;;;;;;5.32;1.80;;;12.80;99.90;;;;;;5052593;28;20064;-58
2022/06/20 02:03:23;;;;;;;7.53;2.28;;;12.80;99.90;;;;;;5051844;28;20852;-58
2022/06/20 02:05:53;;;;;;;8.52;1.83;;;12.70;99.90;;;;;;5031437;28;20407;-57
2022/06/20 02:08:22;;;;;;;11.43;2.20;;;12.70;99.90;;;;;;5051814;28;20121;-58
2022/06/20 02:11:01;;;;;;;7.20;2.08;;;12.70;99.90;;;;;;5054758;28;20048;-58
2022/06/20 02:13:29;;;;;;;7.50;1.90;;;12.70;99.90;;;;;;5053958;28;20090;-58
2022/06/20 02:16:01;;;;;;;5.20;1.88;;;12.70;99.90;;;;;;5052598;28;20040;-58
2022/06/20 02:18:30;;;;;;;7.15;1.70;;;12.60;99.90;;;;;;5051610;28;20094;-58
2022/06/20 02:21:00;;;;;;;6.95;1.83;;;12.60;99.90;;;;;;5059483;28;20151;-58
2022/06/20 02:23:30;;;;;;;6.38;2.40;;;12.60;99.90;;;;;;5052728;28;20200;-58
2022/06/20 02:25:58;;;;;;;5.63;1.80;;;12.60;99.90;;;;;;5049609;28;20059;-58
2022/06/20 02:28:51;;;;;;;6.00;2.00;;;12.60;99.90;;;;;;5047754;28;20166;-58
2022/06/20 02:31:17;;;;;;;5.60;1.90;;;12.60;99.90;;;;;;5054194;28;20052;-58
2022/06/20 02:33:46;;;;;;;10.95;2.33;;;12.60;99.90;;;;;;5054528;28;20467;-58
2022/06/20 02:36:12;;;;;;;7.03;2.17;;;12.60;99.90;;;;;;5052900;28;20052;-58
2022/06/20 02:38:38;;;;;;;5.60;2.10;;;12.60;99.90;;;;;;5050059;28;20125;-58
2022/06/20 02:41:04;;;;;;;7.47;1.90;;;12.60;99.90;;;;;;5056529;28;20037;-59
2022/06/20 02:43:43;;;;;;;8.93;2.67;;;12.60;99.90;;;;;;5056193;28;20049;-58
2022/06/20 02:46:11;;;;;;;7.75;2.25;;;12.50;99.90;;;;;;5054762;28;20050;-58
2022/06/20 02:48:39;;;;;;;7.32;2.30;;;12.40;99.90;;;;;;5054911;28;20036;-58
2022/06/20 02:51:07;;;;;;;5.50;2.10;;;12.40;99.90;;;;;;5055489;28;20159;-58
2022/06/20 02:53:55;;;;;;;7.75;2.13;;;12.40;99.90;;;;;;5060206;28;20061;-58
2022/06/20 02:56:24;;;;;;;6.70;2.10;;;12.40;99.90;;;;;;5057901;28;20552;-58
2022/06/20 02:58:58;;;;;;;6.88;2.20;;;12.30;99.90;;;;;;5054953;28;20045;-58
2022/06/20 03:01:28;;;;;;;8.88;2.00;;;12.30;99.90;;;;;;5055370;28;20486;-58
2022/06/20 03:03:57;;;;;;;7.57;2.47;;;12.30;99.90;;;;;;5035779;28;20064;-58
2022/06/20 03:06:32;;;;;;;6.05;2.30;;;12.20;99.90;;;;;;5055872;28;20089;-58
2022/06/20 03:08:58;;;;;;;6.25;2.20;;;12.20;99.90;;;;;;5050026;28;20491;-59
2022/06/20 03:11:26;;;;;;;6.47;2.40;;;12.20;99.90;;;;;;5035577;28;20102;-58
2022/06/20 03:13:53;;;;;;;6.22;2.13;;;12.10;99.90;;;;;;5009379;28;20518;-58
2022/06/20 03:16:21;;;;;;;4.88;2.15;;;12.10;99.90;;;;;;5050432;28;20475;-58
2022/06/20 03:18:50;;;;;;;5.40;2.33;;;12.00;99.90;;;;;;5056990;28;20044;-57
2022/06/20 03:21:23;;;;;;;9.20;2.60;;;12.00;99.90;;;;;;5053871;28;20040;-59
2022/06/20 03:23:50;;;;;;;3.90;2.05;;;12.00;99.90;;;;;;5048966;28;20044;-59
2022/06/20 03:26:20;;;;;;;5.93;2.25;;;11.90;99.90;;;;;;5056804;28;20036;-58
2022/06/20 03:28:46;;;;;;;6.68;2.53;;;11.90;99.90;;;;;;5067478;28;20084;-58
2022/06/20 03:31:12;;;;;;;9.27;2.50;;;11.90;99.90;;;;;;5052902;28;20033;-58
2022/06/20 03:33:39;;;;;;;7.63;2.40;;;11.80;99.90;;;;;;5056614;28;20051;-57
2022/06/20 03:36:26;;;;;;;8.40;2.42;;;11.70;99.90;;;;;;5051239;28;20048;-58
2022/06/20 03:38:52;;;;;;;7.65;2.60;;;11.70;99.90;;;;;;5055048;28;20048;-58
2022/06/20 03:41:24;;;;;;;5.40;2.13;;;11.60;99.90;;;;;;5055880;28;20127;-58
2022/06/20 03:44:07;;;;;;;9.15;2.45;;;11.60;99.90;;;;;;5056942;28;20044;-58
2022/06/20 03:46:56;;;;;;;6.40;2.45;;;11.50;99.90;;;;;;5055277;28;20032;-59
2022/06/20 03:49:35;;;;;;;6.53;2.50;;;11.50;99.90;;;;;;5057479;28;20054;-58
2022/06/20 03:52:12;;;;;;;5.63;2.00;;;11.50;99.90;;;;;;5049201;28;20101;-59
2022/06/20 03:54:51;;;;;;;5.53;2.28;;;11.50;99.90;;;;;;5055513;28;21287;-58
2022/06/20 03:57:56;;;;;;;9.68;2.47;;;11.50;99.90;;;;;;5057718;28;20399;-58
2022/06/20 04:00:45;;;;;;;6.72;2.55;;;11.50;99.90;;;;;;5059089;28;20040;-58
2022/06/20 04:03:19;;;;;;;7.45;2.47;;;11.50;99.90;;;;;;5053639;28;20092;-58
2022/06/20 04:06:17;;;;;;;7.15;3.25;;;11.50;99.90;;;;;;5056241;28;20534;-58
2022/06/20 04:11:47;;;;;;;6.25;2.80;;;11.60;99.90;;;;;;5056747;28;20082;-58
2022/06/20 04:14:22;;;;;;;6.88;3.20;;;11.60;99.90;;;;;;5057624;28;20394;-58
2022/06/20 04:16:57;;;;;;;9.32;3.60;;;11.60;99.90;;;;;;5049168;28;20043;-57
2022/06/20 04:19:39;;;;;;;8.50;3.20;;;11.60;99.90;;;;;;5055588;28;20514;-58
2022/06/20 04:22:13;;;;;;;6.30;3.10;;;11.60;99.90;;;;;;5054348;28;20044;-59
2022/06/20 04:24:48;;;;;;;6.15;2.97;;;11.70;99.90;;;;;;5053912;28;20524;-58
2022/06/20 04:27:38;;;;;;;8.63;2.83;;;11.70;99.90;;;;;;5051582;28;20421;-58
2022/06/20 04:30:17;;;;;;;6.68;3.47;;;11.70;99.90;;;;;;5065760;28;20095;-58
2022/06/20 04:33:00;;;;;;;9.93;3.42;;;11.80;99.90;;;;;;5062360;28;20056;-58
2022/06/20 04:35:38;;;;;;;8.03;3.57;;;11.80;99.90;;;;;;5059436;28;20659;-59
2022/06/20 04:38:14;;;;;;;10.73;3.42;;;11.80;99.90;;;;;;5053826;28;20459;-58
2022/06/20 04:41:12;;;;;;;7.82;2.83;;;11.90;99.90;;;;;;5058757;28;20101;-58
2022/06/20 04:43:45;;;;;;;9.88;3.50;;;11.90;99.90;;;;;;5047655;28;20049;-59
2022/06/20 04:46:22;;;;;;;12.13;3.60;;;11.90;99.90;;;;;;5054710;28;20051;-57
2022/06/20 04:48:49;;;;;;;11.27;3.35;;;12.00;99.90;;;;;;5031956;28;20131;-60
2022/06/20 04:51:20;;;;;;;14.65;4.22;;;12.00;99.90;;;;;;5054378;28;20583;-58
2022/06/20 04:53:49;;;;;;;7.97;3.45;;;12.00;99.90;;;;;;5056213;28;20492;-56
2022/06/20 04:56:25;;;;;;;8.93;3.38;;;12.00;99.90;;;;;;5050095;28;20105;-58
2022/06/20 04:59:03;;;;;;;14.60;4.72;;;12.00;99.90;;;;;;5061446;28;20144;-58
2022/06/20 05:01:33;;;;;;;10.48;3.35;;;12.00;99.90;;;;;;5057948;28;20437;-58
2022/06/20 05:04:22;;;;;;;10.43;3.78;;;12.10;99.90;;;;;;5057975;28;20640;-58
2022/06/20 05:06:48;;;;;;;12.00;3.60;;;12.10;99.90;;;;;;5058967;28;20051;-58
2022/06/20 05:09:40;;;;;;;12.82;4.18;;;12.10;99.90;;;;;;5052080;28;20048;-57
2022/06/20 05:12:14;;;;;;;11.40;3.67;;;12.20;99.90;;;;;;5055520;28;20075;-57
2022/06/20 05:14:47;;;;;;;13.30;4.07;;;12.30;99.90;;;;;;5054161;28;20057;-57
2022/06/20 05:17:24;;;;;;;9.93;3.58;;;12.30;99.90;;;;;;5058518;28;20155;-57
2022/06/20 05:19:55;;;;;;;15.18;3.95;;;12.40;99.90;;;;;;5058252;28;20106;-57
2022/06/20 05:22:27;;;;;;;11.35;4.07;;;12.40;99.90;;;;;;5047575;28;20494;-58
2022/06/20 05:24:55;;;;;;;11.57;4.10;;;12.50;99.90;;;;;;5055046;28;20648;-57
2022/06/20 05:27:29;;;;;;;14.27;4.03;;;12.60;99.90;;;;;;5060083;28;20044;-57
2022/06/20 05:30:00;;;;;;;16.73;5.07;;;12.60;99.90;;;;;;5058158;28;20044;-57
2022/06/20 05:32:40;;;;;;;11.70;4.20;;;12.70;99.90;;;;;;5026799;28;20049;-58
2022/06/20 05:35:17;;;;;;;17.90;4.40;;;12.70;99.90;;;;;;5044357;28;20410;-58
2022/06/20 05:37:55;;;;;;;15.32;4.47;;;12.80;99.90;;;;;;5047671;28;20106;-58
2022/06/20 05:40:29;;;;;;;14.07;4.60;;;12.80;99.90;;;;;;5022162;28;20201;-59
2022/06/20 05:42:56;;;;;;;13.23;4.90;;;12.80;99.90;;;;;;5039407;28;20041;-58
2022/06/20 05:45:24;;;;;;;16.08;4.70;;;12.80;99.90;;;;;;5036482;28;20059;-58
2022/06/20 05:47:54;;;;;;;20.20;5.00;;;12.90;99.90;;;;;;5025253;28;21599;-58
2022/06/20 05:50:28;;;;;;;15.93;5.43;;;13.00;99.90;;;;;;5042450;28;20048;-58
2022/06/20 05:52:55;;;;;;;17.48;4.20;;;13.00;99.90;;;;;;5049544;28;20052;-58
2022/06/20 05:55:29;;;;;;;11.68;4.00;;;13.10;99.90;;;;;;5057463;28;21070;-58
2022/06/20 05:57:57;;;;;;;12.35;4.72;;;13.20;99.90;;;;;;5048414;28;20064;-59
2022/06/20 06:00:29;;;;;;;13.07;4.40;;;13.30;99.90;;;;;;5054167;28;20052;-58
2022/06/20 06:03:00;;;;;;;16.80;4.32;;;13.40;99.90;;;;;;5061336;28;20052;-58
2022/06/20 06:05:32;;;;;;;14.07;4.20;;;13.50;99.90;;;;;;5055956;28;20098;-58
2022/06/20 06:08:21;;;;;;;14.75;3.95;;;13.60;99.90;;;;;;5039732;28;21604;-58
2022/06/20 06:10:53;;;;;;;9.43;3.80;;;13.70;99.90;;;;;;5039773;28;20071;-58
2022/06/20 06:13:23;;;;;;;16.53;4.60;;;13.70;99.90;;;;;;5034184;28;21117;-57
2022/06/20 06:19:03;;;;;;;14.68;3.78;;;13.80;99.90;;;;;;5048138;28;20070;-58
2022/06/20 06:21:29;;;;;;;12.02;4.03;;;13.80;99.90;;;;;;5048368;28;20048;-58
2022/06/20 06:23:58;;;;;;;10.65;4.05;;;13.90;99.90;;;;;;5049471;28;20052;-59
2022/06/20 06:26:24;;;;;;;15.23;4.22;;;14.00;99.90;;;;;;5050502;28;23676;-59
2022/06/20 06:28:50;;;;;;;16.05;3.85;;;14.10;99.90;;;;;;5048758;28;20178;-58
2022/06/20 06:31:22;;;;;;;14.88;4.10;;;14.20;99.90;;;;;;5042830;28;20055;-58
2022/06/20 06:34:19;;;;;;;11.40;3.70;;;14.40;99.90;;;;;;5043143;28;20716;-58
2022/06/20 06:36:57;;;;;;;16.23;3.85;;;14.60;99.90;;;;;;5043520;28;20115;-59
2022/06/20 06:39:32;;;;;;;17.10;4.38;;;14.80;99.90;;;;;;5049494;28;20520;-58
2022/06/20 06:42:01;;;;;;;17.85;4.07;;;15.00;99.90;;;;;;5055837;28;20052;-58
2022/06/20 06:44:38;;;;;;;10.63;3.80;;;15.10;99.90;;;;;;5055185;28;20048;-58
2022/06/20 06:47:10;;;;;;;15.52;3.55;;;15.30;99.90;;;;;;5054443;28;20679;-58
2022/06/20 06:49:44;;;;;;;14.95;3.15;;;15.50;99.90;;;;;;5043880;28;20052;-58
2022/06/20 06:52:10;;;;;;;14.20;3.50;;;15.60;99.90;;;;;;5047974;28;20708;-58
2022/06/20 06:54:41;;;;;;;13.82;3.45;;;15.70;99.90;;;;;;5041664;28;20066;-58
2022/06/20 06:57:50;;;;;;;12.97;3.70;;;15.70;99.90;;;;;;5040382;28;20041;-58
2022/06/20 07:00:23;;;;;;;11.57;3.60;;;15.80;99.90;;;;;;5023396;28;20063;-57
2022/06/20 07:03:14;;;;;;;12.88;3.85;;;15.80;99.90;;;;;;5033761;28;20045;-59
2022/06/20 07:05:53;;;;;;;12.55;3.05;;;15.80;99.90;;;;;;5045140;28;20045;-58
2022/06/20 07:08:23;;;;;;;7.97;2.83;;;15.70;99.90;;;;;;5046644;28;20036;-59
2022/06/20 07:11:18;;;;;;;12.55;3.30;;;15.70;99.90;;;;;;5043715;28;20056;-57
2022/06/20 07:14:02;;;;;;;9.32;3.03;;;15.70;99.90;;;;;;5043922;28;20049;-58
2022/06/20 07:16:40;;;;;;;14.95;2.92;;;15.70;99.90;;;;;;5045425;28;20043;-58
2022/06/20 07:19:08;;;;;;;11.10;2.53;;;15.70;99.90;;;;;;5041614;28;20356;-59
2022/06/20 07:21:34;;;;;;;11.43;3.00;;;15.60;99.90;;;;;;5053717;28;20502;-59
2022/06/20 07:24:05;;;;;;;14.55;2.78;;;15.60;99.90;;;;;;5040100;28;20573;-58
2022/06/20 07:26:40;;;;;;;8.07;2.35;;;15.80;99.90;;;;;;5045182;28;20498;-58
2022/06/20 07:29:16;;;;;;;10.02;2.72;;;16.00;99.90;;;;;;5045170;28;20036;-57
2022/06/20 07:31:47;;;;;;;8.90;2.50;;;16.10;99.90;;;;;;5041755;28;20106;-58
2022/06/20 07:34:39;;;;;;;9.75;2.70;;;16.20;99.90;;;;;;5039815;28;20490;-57
2022/06/20 07:37:38;;;;;;;5.97;2.03;;;16.30;99.90;;;;;;5042461;28;20155;-58
2022/06/20 07:40:18;;;;;;;7.18;2.28;;;16.30;99.90;;;;;;5027964;28;20048;-58
2022/06/20 07:42:52;;;;;;;9.23;2.50;;;16.40;99.90;;;;;;5059469;28;20071;-60
2022/06/20 07:45:21;;;;;;;7.68;2.30;;;16.40;99.90;;;;;;5041093;28;20183;-58
2022/06/20 07:48:02;;;;;;;8.50;2.20;;;16.50;99.90;;;;;;5043342;28;20048;-58
2022/06/20 07:50:38;;;;;;;7.68;2.47;;;16.50;99.90;;;;;;5023646;28;20115;-58
2022/06/20 07:53:13;;;;;;;5.47;2.50;;;16.70;99.90;;;;;;5060055;28;20060;-58
2022/06/20 07:55:49;;;;;;;6.43;2.33;;;16.80;99.90;;;;;;5043271;28;20044;-58
2022/06/20 07:58:26;;;;;;;5.35;2.00;;;16.80;99.90;;;;;;5043879;28;20505;-59
2022/06/20 08:00:53;;;;;;;9.20;2.28;;;16.80;99.90;;;;;;5038743;28;20048;-59
2022/06/20 08:03:32;;;;;;;10.07;2.55;;;16.70;99.90;;;;;;5042842;28;20056;-58
2022/06/20 08:06:03;;;;;;;8.18;1.98;;;16.80;99.90;;;;;;5036706;28;20581;-59
2022/06/20 08:08:40;;;;;;;5.65;1.70;;;16.90;99.90;;;;;;5043757;28;20064;-58
2022/06/20 08:11:41;;;;;;;6.22;1.90;;;17.00;99.90;;;;;;5044188;28;20731;-58
2022/06/20 08:14:22;;;;;;;6.57;2.20;;;17.30;99.90;;;;;;5032391;28;20048;-58
2022/06/20 08:16:53;;;;;;;6.82;1.85;;;17.50;99.90;;;;;;5047484;28;20652;-59
2022/06/20 08:19:20;;;;;;;6.80;1.83;;;17.70;99.50;;;;;;5045724;28;20048;-59
2022/06/20 08:21:53;;;;;;;9.35;2.00;;;17.60;99.30;;;;;;5042939;28;20115;-59
2022/06/20 08:24:28;;;;;;;9.88;2.28;;;17.50;98.90;;;;;;5039913;28;20051;-59
2022/06/20 08:27:07;;;;;;;6.57;2.10;;;17.30;99.00;;;;;;5019777;28;20101;-59
2022/06/20 08:30:11;;;;;;;5.25;1.88;;;17.20;98.90;;;;;;5044555;28;20105;-59
2022/06/20 08:32:46;;;;;;;9.02;2.30;;;17.40;98.50;;;;;;4995649;28;20065;-58
2022/06/20 08:35:51;;;;;;;7.18;2.03;;;17.60;98.50;;;;;;5046876;28;20163;-59
2022/06/20 08:38:26;;;;;;;7.68;2.13;;;17.70;98.40;;;;;;5044707;28;20056;-59
2022/06/20 08:41:11;;;;;;;5.72;1.92;;;17.60;98.20;;;;;;5040500;28;22253;-59
2022/06/20 08:43:42;;;;;;;9.07;2.30;;;17.50;98.00;;;;;;5047889;28;20607;-58
2022/06/20 08:46:29;;;;;;;9.48;2.20;;;17.50;98.20;;;;;;5040734;28;20048;-57
2022/06/20 08:49:23;;;;;;;6.07;2.00;;;17.40;98.10;;;;;;5043192;28;20056;-58
2022/06/20 08:52:06;;;;;;;5.63;2.00;;;17.40;98.00;;;;;;5043853;28;20059;-59
2022/06/20 08:54:51;;;;;;;7.70;2.00;;;17.50;98.60;;;;;;5040158;28;20041;-58
2022/06/20 08:57:29;;;;;;;5.55;1.50;;;17.70;98.00;;;;;;5039267;28;20414;-57
2022/06/20 09:00:14;;;;;;;6.32;1.65;;;17.50;96.90;;;;;;5046578;28;20045;-58
2022/06/20 09:03:18;;;;;;;6.75;2.20;;;17.50;97.20;;;;;;5038581;28;20106;-58
2022/06/20 09:06:02;;;;;;;;;;;17.70;97.60;;;;;;5040747;28;20052;-57
2022/06/20 09:08:38;;;;;;;6.97;1.48;;;17.70;97.30;;;;;;5046412;28;19920;-58
2022/06/20 09:11:10;;;;;;;4.95;1.80;;;17.80;96.60;;;;;;5045193;28;20948;-58
2022/06/20 09:13:54;;;;;;;9.90;2.03;;;17.90;96.40;;;;;;5046991;28;20521;-57
2022/06/20 09:16:47;;;;;;;6.18;2.40;;;17.90;95.90;;;;;;5045663;28;20052;-58
2022/06/20 09:19:16;;;;;;;8.13;1.80;;;18.10;95.90;;;;;;5037889;28;20037;-58
2022/06/20 09:22:03;;;;;;;6.47;1.88;;;18.20;95.60;;;;;;5038465;28;20110;-58
2022/06/20 09:24:50;;;;;;;7.70;1.80;;;18.30;95.00;;;;;;5040613;28;20049;-58
2022/06/20 09:27:25;;;;;;;4.85;1.67;;;18.30;94.80;;;;;;5045251;28;20631;-57
2022/06/20 09:30:00;;;;;;;4.72;1.70;;;18.20;95.20;;;;;;5048616;28;20095;-57
2022/06/20 09:32:26;;;;;;;5.53;1.98;;;18.40;94.60;;;;;;5045425;28;22508;-58
2022/06/20 09:35:03;;;;;;;10.05;2.10;;;18.50;94.50;;;;;;5052878;28;20094;-58
2022/06/20 09:37:42;;;;;;;6.35;1.90;;;18.70;94.90;;;;;;5037497;28;20044;-58
2022/06/20 09:40:38;;;;;;;6.07;1.80;;;18.80;94.90;;;;;;5027600;28;20675;-58
2022/06/20 09:43:35;;;;;;;6.90;2.08;;;18.70;94.30;;;;;;5048412;28;20048;-58
2022/06/20 09:46:07;;;;;;;11.90;2.00;;;18.80;94.40;;;;;;5038951;28;20499;-58
2022/06/20 09:48:39;;;;;;;4.88;2.00;;;18.80;94.00;;;;;;5040330;28;20040;-58
2022/06/20 09:51:10;;;;;;;7.57;1.90;;;18.90;94.50;;;;;;5036498;28;20048;-58
2022/06/20 09:53:59;;;;;;;7.40;1.80;;;19.00;94.40;;;;;;5038360;28;20068;-58
2022/06/20 09:56:43;;;;;;;4.95;1.63;;;19.20;94.00;;;;;;5040387;28;20055;-58
2022/06/20 09:59:27;;;;;;;3.72;1.40;;;19.30;93.50;;;;;;5041674;28;20581;-58
2022/06/20 10:02:18;;;;;;;11.48;1.90;;;19.50;92.80;;;;;;5049818;28;20483;-58
2022/06/20 10:04:48;;;;;;;7.15;1.52;;;19.60;92.10;;;;;;5045612;28;20041;-59
2022/06/20 10:07:58;;;;;;;8.50;1.70;;;19.60;91.50;;;;;;5048343;28;20086;-60
2022/06/20 10:10:30;;;;;;;10.18;1.63;;;19.60;91.50;;;;;;5004171;28;20160;-58
2022/06/20 10:13:11;;;;;;;8.93;2.05;;;19.70;91.00;;;;;;5037921;28;20045;-60
2022/06/20 10:15:55;;;;;;;6.00;1.80;;;19.70;91.00;;;;;;5042156;28;20720;-60
2022/06/20 10:18:38;;;;;;;9.75;2.15;;;19.70;90.90;;;;;;5043765;28;20479;-59
2022/06/20 10:21:23;;;;;;;10.07;1.73;;;19.60;90.90;;;;;;5038687;28;20036;-59
2022/06/20 10:24:06;;;;;;;10.23;2.15;;;19.70;91.50;;;;;;5038042;28;20056;-60
2022/06/20 10:27:06;;;;;;;6.05;1.60;;;19.80;91.70;;;;;;5039131;28;20393;-59
2022/06/20 10:29:51;;;;;;;5.20;1.67;;;19.80;90.50;;;;;;5015585;28;25526;-60
2022/06/20 10:33:08;;;;;;;5.82;1.83;;;19.70;90.50;;;;;;5038754;28;20205;-60
2022/06/20 10:36:24;;;;;;;8.90;1.92;;;19.80;90.10;;;;;;5046817;28;20124;-59
2022/06/20 10:39:22;;;;;;;5.90;1.50;;;19.90;90.40;;;;;;5022525;28;20065;-59
2022/06/20 10:41:48;;;;;;;6.28;1.92;;;19.80;89.60;;;;;;5037388;28;20433;-58
2022/06/20 10:44:21;;;;;;;7.43;1.83;;;19.60;89.50;;;;;;5041715;28;20063;-59
2022/06/20 10:47:11;;;;;;;9.45;2.47;;;19.70;88.90;;;;;;5040991;28;20047;-60
2022/06/20 10:49:48;;;;;;;8.30;1.63;;;20.00;89.60;;;;;;5038436;28;20414;-60
2022/06/20 10:52:39;;;;;;;6.05;2.20;;;19.90;87.80;;;;;;5039679;28;20175;-59
2022/06/20 10:55:17;;;;;;;3.55;1.60;;;19.90;88.50;;;;;;5040091;28;20354;-60
2022/06/20 10:58:03;;;;;;;4.00;1.75;;;19.90;86.00;;;;;;5041579;28;20180;-59
2022/06/20 11:00:35;;;;;;;5.07;1.63;;;20.00;86.70;;;;;;5040457;28;20131;-59
2022/06/20 11:03:13;;;;;;;;;;;20.20;86.80;;;;;;5040131;28;20056;-59
2022/06/20 11:05:57;;;;;;;6.53;1.90;;;20.20;86.80;;;;;;5041049;28;19960;-59
2022/06/20 11:08:55;;;;;;;4.43;1.80;;;20.40;84.30;;;;;;5046157;28;20371;-59
2022/06/20 11:11:39;;;;;;;6.85;1.63;;;20.50;83.80;;;;;;5045616;28;20028;-60
2022/06/20 11:14:21;;;;;;;9.80;2.20;;;20.60;81.00;;;;;;5039643;28;20512;-59
2022/06/20 11:16:59;;;;;;;4.05;1.58;;;20.60;81.80;;;;;;5042947;28;20451;-59
2022/06/20 11:19:30;;;;;;;7.40;1.77;;;20.80;79.30;;;;;;5040237;28;20264;-59
2022/06/20 11:22:19;;;;;;;6.75;1.90;;;20.80;77.90;;;;;;5037041;28;20055;-59
2022/06/20 11:24:52;;;;;;;2.33;1.50;;;20.80;79.80;;;;;;5040355;28;20471;-59
2022/06/20 11:27:43;;;;;;;5.68;1.77;;;20.80;80.20;;;;;;5033813;28;20048;-59
2022/06/20 11:30:24;;;;;;;8.55;1.80;;;21.10;79.70;;;;;;5042009;28;20047;-59
2022/06/20 11:33:20;;;;;;;4.60;2.08;;;21.10;78.00;;;;;;5041962;28;20143;-59
2022/06/20 11:35:56;;;;;;;5.88;1.60;;;21.10;78.00;;;;;;5039664;28;20040;-59
2022/06/20 11:38:37;;;;;;;5.53;1.92;;;20.90;77.50;;;;;;5043229;28;20478;-59
2022/06/20 11:41:02;;;;;;;6.03;1.67;;;20.90;78.00;;;;;;5041412;28;20094;-57
2022/06/20 11:43:53;;;;;;;8.63;1.80;;;21.10;77.70;;;;;;5049437;28;20052;-60
2022/06/20 11:46:34;;;;;;;8.60;1.88;;;21.00;78.20;;;;;;5049499;28;20070;-59
2022/06/20 11:49:21;;;;;;;10.90;2.08;;;20.70;77.80;;;;;;5047001;28;20052;-58
2022/06/20 11:51:51;;;;;;;7.65;2.40;;;20.40;78.90;;;;;;5040989;28;20064;-59
2022/06/20 11:54:19;;;;;;;8.20;2.20;;;20.00;81.90;;;;;;5038124;28;20049;-59
2022/06/20 11:57:20;;;;;;;5.25;1.92;;;19.70;84.00;;;;;;5035999;28;20127;-59
2022/06/20 11:59:50;;;;;;;5.78;2.10;;;19.50;85.70;;;;;;5041728;28;20523;-60
2022/06/20 12:02:48;;;;;;;6.38;2.20;;;19.70;87.00;;;;;;5042177;28;20487;-59
2022/06/20 12:05:20;;;;;;;6.63;2.25;;;19.90;87.00;;;;;;5046058;28;20048;-58
2022/06/20 12:07:54;;;;;;;5.88;1.85;;;19.90;85.00;;;;;;5044770;28;20432;-59
2022/06/20 12:10:44;;;;;;;2.50;1.52;;;20.00;84.50;;;;;;5047973;28;20159;-58
2022/06/20 12:13:31;;;;;;;6.63;1.70;;;20.20;83.30;;;;;;5045364;28;20178;-59
2022/06/20 12:16:17;;;;;;;3.65;1.65;;;20.70;80.80;;;;;;5050554;28;20404;-59
2022/06/20 12:24:19;;;;;;;3.00;1.45;;;20.60;77.50;;;;;;5046965;28;20081;-59
2022/06/20 12:26:45;;;;;;;7.78;2.45;;;20.30;78.40;;;;;;5044445;28;20044;-59
2022/06/20 12:29:22;;;;;;;7.70;2.00;;;20.00;79.30;;;;;;5044709;28;20088;-59
2022/06/20 12:31:57;;;;;;;4.85;1.80;;;19.70;81.10;;;;;;5044396;28;20511;-59
2022/06/20 12:34:29;;;;;;;6.32;1.85;;;19.50;82.10;;;;;;5049959;28;20041;-59
2022/06/20 12:37:15;;;;;;;5.05;1.75;;;19.40;82.80;;;;;;5045475;28;20044;-60
2022/06/20 12:39:50;;;;;;;5.68;2.05;;;19.40;83.60;;;;;;5051421;28;20055;-58
2022/06/20 12:42:18;;;;;;;7.90;2.17;;;19.30;85.10;;;;;;5058620;28;20052;-59
2022/06/20 12:44:55;;;;;;;6.18;2.08;;;19.50;85.80;;;;;;5048541;28;22371;-59
2022/06/20 12:47:35;;;;;;;6.88;2.45;;;19.90;86.00;;;;;;5049437;28;20053;-60
2022/06/20 12:50:24;;;;;;;7.38;1.92;;;20.10;85.00;;;;;;5047449;28;20550;-59
2022/06/20 12:52:53;;;;;;;7.45;2.15;;;20.30;83.40;;;;;;5043485;28;20059;-59
2022/06/20 12:55:44;;;;;;;5.85;1.90;;;20.30;82.90;;;;;;5039544;28;20033;-60
2022/06/20 12:58:30;;;;;;;7.43;1.83;;;20.40;81.80;;;;;;5044793;28;20228;-60
2022/06/20 13:01:07;;;;;;;5.72;1.95;;;20.60;82.20;;;;;;5042438;28;20049;-61
2022/06/20 13:03:49;;;;;;;12.25;2.83;;;20.50;80.90;;;;;;5043575;28;20048;-60
2022/06/20 13:06:51;;;;;;;11.30;2.30;;;20.20;81.40;;;;;;5042896;28;20079;-58
2022/06/20 13:10:01;;;;;;;4.50;1.90;;;19.70;83.20;;;;;;5042970;28;20059;-58
2022/06/20 13:12:32;;;;;;;5.22;1.92;;;19.50;82.80;;;;;;5038337;28;20055;-58
2022/06/20 13:15:19;;;;;;;4.65;2.00;;;19.40;82.20;;;;;;5042019;28;20131;-58
2022/06/20 13:18:07;;;;;;;6.32;1.92;;;19.20;83.40;;;;;;5042080;28;20047;-58
2022/06/20 13:20:45;;;;;;;6.72;2.08;;;19.40;85.30;;;;;;5040778;28;20049;-58
2022/06/20 13:23:44;;;;;;;6.32;2.22;;;19.30;84.80;;;;;;5042165;28;20049;-58
2022/06/20 13:26:35;;;;;;;4.53;1.88;;;19.20;85.90;;;;;;5042320;28;20059;-58
2022/06/20 13:29:16;;;;;;;5.97;1.80;;;19.30;85.50;;;;;;5042705;28;20060;-58
2022/06/20 13:31:56;;;;;;;4.88;2.10;;;19.60;85.40;;;;;;5041060;28;20056;-58
2022/06/20 13:34:32;;;;;;;7.55;2.33;;;20.00;83.70;;;;;;5042837;28;20093;-60
2022/06/20 13:37:17;;;;;;;5.25;1.70;;;20.40;83.40;;;;;;5047530;28;20051;-59
2022/06/20 13:39:50;;;;;;;7.35;1.55;;;20.80;81.00;;;;;;5039517;28;20036;-60
2022/06/20 13:42:19;;;;;;;4.82;1.70;;;21.00;77.20;;;;;;5033357;28;20055;-60
2022/06/20 13:45:09;;;;;;;5.68;1.90;;;21.00;77.70;;;;;;5042756;28;20052;-58
2022/06/20 13:48:01;;;;;;;4.97;1.85;;;20.80;78.00;;;;;;5033388;28;20083;-58
2022/06/20 13:50:46;;;;;;;;;;;20.70;78.40;;;;;;5057649;28;20090;-57
2022/06/20 13:53:39;;;;;;;4.70;1.60;;;20.90;79.20;;;;;;5054369;28;22400;-60